Kezdőlap
METAR-TAF:

METAR-TAF

Repülőterek :

Cloquet/Carlton County Airport

Cloquet, Minnesota, Amerikai Egyesült Államok

földrajzi szélesség: 46-42N, földrajzi hosszúság: 092-30W, magasság: 390 m

Jelenlegi meteorológiai megfigyelések

A jelentés 13 perccel ezelõtt készült, 18:55 UTC
Keleti szél 5 kt
Hőmérséklet 21°C
Páratartalom 46%
Légköri nyomás 1024 hPa
Látótávolság: 16.1 km
Szórványos felhőzet 6000 lábon

METAR: KCOQ 241855Z AUTO 10005KT 10SM SCT060 21/09 A3023 RMK AO2 TSNO

Idő: 14:08 (19:08 UTC)


TAF: hiányzik

Meteorológiai megfigyelések és előrejelzések több, mint 4000 repülőtéren (METAR és TAF jelentéseket).

A térképen piros és sárga pontok jelzik az elérhető meteorológiai állomásokat.

Mozgassa az egeret a pont fölött, hogy megjelenjen az állomás neve.

Azután kattintson az időjárási megfigyelések és előrejelzések megtekintéséhez.

A térkép megváltoztatása: kattintson a fekete keresztel jelölt zöld gombra ráközelítéshez, a vonallal jelölt zöld gombra távolításhoz, vagy a zöld nyilakra a szomszédos térképek eléréséhez.


METAR-TAF: